Terminal Aerodrome Forecast
Issued by NWS Sterling, VA

Home | Current Version | Previous Version | Text Only | Print | Product List | Glossary On
Versions: 1 2 3 4 5 6 7 8 9 10 11 12 13 14 15
467
FTUS41 KLWX 221729
TAFCHO
TAF
KCHO 221729Z 2218/2318 18008KT P6SM BKN150
     FM230400 19006KT P6SM BKN030
     FM230600 18008KT 2SM -SHRA OVC010
     FM230800 18010G17KT 1 1/2SM -SHRA OVC008 WS020/20040KT
     FM231300 21011G19KT 5SM -SHRA BKN008
     FM231600 23012G21KT P6SM -SHRA BKN035
     FM231700 24013G21KT P6SM -SHRA SCT045=

USA.gov is the U.S. government's official web portal to all federal, state and local government web resources and services.